Himeji, Japan
Current Conditions -  °F | °C
As of 9:00 PM on Tuesday 21 Oct 2014 (Local Time) from RJBE Reporting Station
Broken Clouds Broken Clouds  
Wind Chill: 72°   Ceiling: Unl
Heat Index: 72°   Visibility: 6mi
Dew Point: 66°   Wind: 6mph
Humidity: 83%   Direction: 110°ESE
Pressure: 29.91"   Gusts: NA
Location:  34.83°N, 134.69°E
Report Text: RJBE 211200Z 11005KT 9999 FEW025 SCT140 BKN/// 22/19 Q1013
Loading
Personal Weather Stations






























Interactive Weather Map
Tropical Storm Tracking
New forecast layout! Learn more

10-Day Weather Forecast

Advertisements
Track Severe Weather on mobile